Time;durP1;ratioP1;P1;durP2;ratioP2;P2;SDS_P1;SDS_P2;PMS_P1;PMS_P2;Temp;Humidity;BMP_temperature;BMP_pressure;BME280_temperature;BME280_humidity;BME280_pressure;Samples;Min_cycle;Max_cycle;Signal;HPM_P1;HPM_P2
2022/07/07 00:00:57;;;;;;;4.15;3.00;;;19.80;99.90;;;;;;5075237;28;20086;-82
2022/07/07 00:03:22;;;;;;;3.97;2.92;;;19.70;99.90;;;;;;5085234;28;20080;-81
2022/07/07 00:05:48;;;;;;;5.80;3.42;;;19.70;99.90;;;;;;5078913;28;20354;-82
2022/07/07 00:08:15;;;;;;;4.63;3.33;;;19.60;99.90;;;;;;5081020;28;20020;-80
2022/07/07 00:10:41;;;;;;;6.18;3.70;;;19.50;99.90;;;;;;5089763;28;20037;-81
2022/07/07 00:13:06;;;;;;;7.07;3.50;;;19.50;99.90;;;;;;5090220;28;20035;-81
2022/07/07 00:15:32;;;;;;;6.07;3.03;;;19.30;99.90;;;;;;5084578;28;20120;-80
2022/07/07 00:17:58;;;;;;;5.30;3.42;;;19.20;99.90;;;;;;5097431;28;20033;-80
2022/07/07 00:20:24;;;;;;;6.13;3.33;;;19.10;99.90;;;;;;5098058;28;20093;-79
2022/07/07 00:22:51;;;;;;;5.60;2.95;;;19.10;99.90;;;;;;5088949;28;20028;-81
2022/07/07 00:25:17;;;;;;;5.43;2.92;;;19.10;99.90;;;;;;5083874;28;20020;-80
2022/07/07 00:27:42;;;;;;;4.97;3.38;;;19.20;99.90;;;;;;5081487;28;20254;-78
2022/07/07 00:30:09;;;;;;;6.47;3.08;;;19.30;99.90;;;;;;5080334;28;20043;-79
2022/07/07 00:32:34;;;;;;;7.13;3.00;;;19.30;99.90;;;;;;5093355;28;20024;-82
2022/07/07 00:35:00;;;;;;;6.70;2.85;;;19.40;99.90;;;;;;5086872;28;20368;-81
2022/07/07 00:37:26;;;;;;;5.25;2.80;;;19.50;99.90;;;;;;5091608;28;20394;-80
2022/07/07 00:39:52;;;;;;;4.38;2.83;;;19.70;99.90;;;;;;5098616;28;20463;-80
2022/07/07 00:42:17;;;;;;;3.05;2.75;;;19.70;99.90;;;;;;5091195;28;20024;-81
2022/07/07 00:44:44;;;;;;;3.70;2.65;;;19.90;99.90;;;;;;5102742;28;20031;-81
2022/07/07 00:47:11;;;;;;;3.85;3.00;;;19.70;99.90;;;;;;5090914;28;20031;-81
2022/07/07 00:49:38;;;;;;;3.80;2.92;;;19.40;99.90;;;;;;5088296;28;20092;-79
2022/07/07 00:52:07;;;;;;;3.60;3.20;;;19.20;99.90;;;;;;5095611;28;20017;-80
2022/07/07 00:54:33;;;;;;;3.90;2.78;;;19.10;99.90;;;;;;5099006;28;20123;-78
2022/07/07 00:56:59;;;;;;;3.67;2.72;;;19.20;99.90;;;;;;5089887;28;20044;-78
2022/07/07 00:59:25;;;;;;;3.28;2.72;;;19.30;99.90;;;;;;5086678;28;20499;-80
2022/07/07 01:01:51;;;;;;;3.80;2.53;;;19.20;99.90;;;;;;5116493;28;20079;-81
2022/07/07 01:04:17;;;;;;;4.22;2.97;;;19.10;99.90;;;;;;5114345;28;20413;-83
2022/07/07 01:06:43;;;;;;;7.10;3.22;;;18.90;99.90;;;;;;5119167;22;20032;-86
2022/07/07 01:09:10;;;;;;;6.53;2.95;;;18.90;99.90;;;;;;5093653;28;20063;-85
2022/07/07 01:11:55;;;;;;;3.30;2.90;;;19.00;99.90;;;;;;5058299;28;20025;-88
2022/07/07 01:14:21;;;;;;;;;;;18.90;99.90;;;;;;5096321;28;20036;-87
2022/07/07 01:16:48;;;;;;;4.00;2.83;;;18.80;99.90;;;;;;5070068;28;20462;-84
2022/07/07 01:19:16;;;;;;;4.07;3.15;;;18.60;99.90;;;;;;5038340;28;20089;-86
2022/07/07 01:21:54;;;;;;;4.72;3.30;;;18.60;99.90;;;;;;5056037;28;20100;-85
2022/07/07 01:24:22;;;;;;;5.55;3.10;;;18.50;99.90;;;;;;5053157;28;20103;-83
2022/07/07 01:26:48;;;;;;;8.30;3.10;;;18.40;99.90;;;;;;5031179;28;20044;-84
2022/07/07 01:29:14;;;;;;;7.40;3.30;;;18.40;99.90;;;;;;5049332;28;20025;-83
2022/07/07 01:31:39;;;;;;;3.80;3.03;;;18.30;99.90;;;;;;5056427;28;20029;-85
2022/07/07 01:34:06;;;;;;;6.93;3.35;;;18.20;99.90;;;;;;5037748;28;20028;-84
2022/07/07 01:36:31;;;;;;;4.40;3.80;;;18.20;99.90;;;;;;5017409;28;20036;-84
2022/07/07 01:38:57;;;;;;;8.35;3.40;;;18.10;99.90;;;;;;5052239;28;20022;-85
2022/07/07 01:41:23;;;;;;;4.97;3.70;;;18.00;99.90;;;;;;5062588;28;20033;-85
2022/07/07 01:43:49;;;;;;;4.50;4.10;;;17.90;99.90;;;;;;5045777;28;20108;-86
2022/07/07 01:46:15;;;;;;;5.40;3.50;;;17.80;99.90;;;;;;5072702;28;20040;-86
2022/07/07 01:48:41;;;;;;;4.63;3.75;;;17.80;99.90;;;;;;5067066;28;20089;-84
2022/07/07 01:51:06;;;;;;;7.57;3.95;;;17.80;99.90;;;;;;5060769;28;20285;-85
2022/07/07 01:53:32;;;;;;;3.95;3.55;;;17.80;99.90;;;;;;5062818;28;20056;-84
2022/07/07 01:56:05;;;;;;;4.47;3.35;;;17.90;99.90;;;;;;5059502;28;20014;-84
2022/07/07 01:58:31;;;;;;;4.88;3.50;;;18.00;99.90;;;;;;5058944;28;20057;-86
2022/07/07 02:00:57;;;;;;;4.75;3.67;;;18.00;99.90;;;;;;5059793;28;20036;-85
2022/07/07 02:03:23;;;;;;;5.00;3.30;;;18.10;99.90;;;;;;5062212;28;20021;-83
2022/07/07 02:05:49;;;;;;;5.47;3.55;;;18.20;99.90;;;;;;5079119;28;20041;-84
2022/07/07 02:08:16;;;;;;;3.92;3.33;;;18.10;99.90;;;;;;5079096;28;20044;-85
2022/07/07 02:13:26;;;;;;;8.00;3.78;;;18.10;99.90;;;;;;5074432;28;20021;-84
2022/07/07 02:15:52;;;;;;;5.03;3.70;;;18.20;99.90;;;;;;5041699;28;20024;-83
2022/07/07 02:18:18;;;;;;;4.38;3.47;;;18.20;99.90;;;;;;5057683;28;20040;-85
2022/07/07 02:20:44;;;;;;;6.28;3.50;;;18.30;99.90;;;;;;5036215;28;20076;-82
2022/07/07 02:23:09;;;;;;;4.00;3.60;;;18.40;99.90;;;;;;5054302;28;20037;-84
2022/07/07 02:25:35;;;;;;;5.35;3.40;;;18.40;99.90;;;;;;5053044;28;20025;-85
2022/07/07 02:28:01;;;;;;;7.75;3.40;;;18.40;99.90;;;;;;5071190;28;20025;-84
2022/07/07 02:30:27;;;;;;;5.85;3.30;;;18.50;99.90;;;;;;5028147;28;20009;-84
2022/07/07 02:32:53;;;;;;;5.05;3.38;;;18.40;99.90;;;;;;5054129;28;20029;-83
2022/07/07 02:35:19;;;;;;;5.50;3.38;;;18.30;99.90;;;;;;5058057;28;20049;-83
2022/07/07 02:37:44;;;;;;;5.72;3.67;;;18.30;99.90;;;;;;5056320;28;20070;-86
2022/07/07 02:40:11;;;;;;;11.82;3.90;;;18.30;99.90;;;;;;5053745;28;20029;-84
2022/07/07 02:42:36;;;;;;;6.55;3.85;;;18.20;99.90;;;;;;5056181;28;20049;-85
2022/07/07 02:45:03;;;;;;;4.60;3.88;;;18.10;99.90;;;;;;5037949;28;20020;-85
2022/07/07 02:47:29;;;;;;;4.85;3.65;;;18.10;99.90;;;;;;5032601;28;20042;-82
2022/07/07 02:49:54;;;;;;;5.85;3.72;;;18.20;99.90;;;;;;5020704;28;20032;-83
2022/07/07 02:52:20;;;;;;;5.07;3.50;;;18.20;99.90;;;;;;5050881;28;20033;-86
2022/07/07 02:54:46;;;;;;;3.47;3.17;;;18.20;99.90;;;;;;5053829;28;20067;-84
2022/07/07 02:57:13;;;;;;;5.57;3.30;;;18.30;99.90;;;;;;5047380;28;20047;-85
2022/07/07 02:59:38;;;;;;;4.57;3.65;;;18.40;99.90;;;;;;5049155;28;20032;-84
2022/07/07 03:02:04;;;;;;;4.35;3.38;;;18.40;99.90;;;;;;5058027;28;20021;-85
2022/07/07 03:04:30;;;;;;;6.78;3.50;;;18.50;99.90;;;;;;5058467;28;20028;-85
2022/07/07 03:06:56;;;;;;;4.50;3.05;;;18.50;99.90;;;;;;5056404;28;20029;-86
2022/07/07 03:09:22;;;;;;;5.22;3.30;;;18.50;99.90;;;;;;5038695;28;20404;-86
2022/07/07 03:11:48;;;;;;;5.93;4.03;;;18.70;99.90;;;;;;5056125;28;20032;-87
2022/07/07 03:14:14;;;;;;;6.00;3.10;;;18.70;99.90;;;;;;5064480;28;20096;-85
2022/07/07 03:16:40;;;;;;;5.25;3.28;;;18.70;99.90;;;;;;5052943;28;20017;-85
2022/07/07 03:19:06;;;;;;;4.50;3.13;;;18.90;99.90;;;;;;5057272;28;20026;-85
2022/07/07 03:21:32;;;;;;;3.60;2.53;;;18.90;99.90;;;;;;5018920;28;20025;-85
2022/07/07 03:23:58;;;;;;;6.13;2.90;;;18.90;99.90;;;;;;5031725;28;20044;-83
2022/07/07 03:26:23;;;;;;;5.95;3.25;;;18.90;99.90;;;;;;5025573;28;20029;-82
2022/07/07 03:28:49;;;;;;;6.25;2.60;;;18.90;99.90;;;;;;5018501;28;20093;-84
2022/07/07 03:31:15;;;;;;;4.68;2.85;;;18.90;99.90;;;;;;5042241;28;20037;-83
2022/07/07 03:33:41;;;;;;;4.88;2.70;;;19.00;99.90;;;;;;5037959;28;20034;-83
2022/07/07 03:36:07;;;;;;;2.92;2.38;;;19.10;99.90;;;;;;5058305;28;20013;-83
2022/07/07 03:38:33;;;;;;;4.75;2.17;;;19.20;99.90;;;;;;5065313;28;20052;-84
2022/07/07 03:41:00;;;;;;;3.55;2.50;;;19.20;99.90;;;;;;5055215;28;20021;-83
2022/07/07 03:43:26;;;;;;;3.22;2.42;;;19.20;99.90;;;;;;5060596;28;20033;-88
2022/07/07 03:45:53;;;;;;;8.07;2.80;;;19.30;99.90;;;;;;5042728;28;20037;-82
2022/07/07 03:48:19;;;;;;;2.95;2.60;;;19.30;99.90;;;;;;5034865;28;20077;-84
2022/07/07 03:50:45;;;;;;;4.47;2.90;;;19.30;99.90;;;;;;5044296;28;20063;-81
2022/07/07 03:53:11;;;;;;;5.28;2.75;;;19.30;99.90;;;;;;5039317;28;20029;-84
2022/07/07 03:55:38;;;;;;;2.72;2.50;;;19.30;99.90;;;;;;5034997;28;20034;-80
2022/07/07 03:58:04;;;;;;;5.07;2.80;;;19.40;99.90;;;;;;5052199;28;20026;-83
2022/07/07 04:00:30;;;;;;;5.30;2.97;;;19.40;99.90;;;;;;5047178;28;20042;-83
2022/07/07 04:02:56;;;;;;;3.67;3.15;;;19.30;99.90;;;;;;5042895;28;20025;-82
2022/07/07 04:05:21;;;;;;;5.95;3.22;;;19.20;99.90;;;;;;5071407;28;20044;-84
2022/07/07 04:07:47;;;;;;;5.68;3.10;;;19.10;99.90;;;;;;5080223;28;20090;-83
2022/07/07 04:10:13;;;;;;;7.93;4.07;;;19.00;99.90;;;;;;5051394;28;20033;-84
2022/07/07 04:12:39;;;;;;;4.97;3.40;;;19.00;99.90;;;;;;5077159;28;20014;-86
2022/07/07 04:15:05;;;;;;;5.65;3.10;;;19.00;99.90;;;;;;5063914;28;20013;-86
2022/07/07 04:17:31;;;;;;;8.23;3.22;;;18.90;99.90;;;;;;5080821;28;20020;-86
2022/07/07 04:19:57;;;;;;;4.32;3.20;;;18.90;99.90;;;;;;5056665;28;20025;-85
2022/07/07 04:22:23;;;;;;;6.35;3.63;;;18.90;99.90;;;;;;5034255;28;20061;-83
2022/07/07 04:24:48;;;;;;;8.02;3.88;;;18.90;99.90;;;;;;5050940;28;20033;-84
2022/07/07 04:27:14;;;;;;;6.13;4.13;;;18.90;99.90;;;;;;5043068;28;20024;-86
2022/07/07 04:29:40;;;;;;;6.20;3.70;;;18.90;99.90;;;;;;5068877;28;20021;-84
2022/07/07 04:32:06;;;;;;;5.38;4.18;;;18.90;99.90;;;;;;5079305;28;20401;-85
2022/07/07 04:34:32;;;;;;;10.63;4.68;;;18.90;99.90;;;;;;5054736;28;20059;-84
2022/07/07 04:36:58;;;;;;;6.97;4.93;;;18.90;99.90;;;;;;5080421;28;20013;-86
2022/07/07 04:39:24;;;;;;;4.65;4.07;;;18.90;99.90;;;;;;5062551;28;20118;-86
2022/07/07 04:41:50;;;;;;;7.72;4.75;;;18.90;99.90;;;;;;5033946;28;20034;-83
2022/07/07 04:44:16;;;;;;;7.10;4.78;;;18.90;99.90;;;;;;5072052;28;20036;-83
2022/07/07 04:46:41;;;;;;;6.68;4.78;;;18.90;99.90;;;;;;5053361;28;20021;-83
2022/07/07 04:49:07;;;;;;;11.43;5.05;;;18.90;99.90;;;;;;5035282;28;20111;-84
2022/07/07 04:51:33;;;;;;;8.40;4.57;;;18.90;99.90;;;;;;5061199;28;20028;-83
2022/07/07 04:53:59;;;;;;;8.63;4.43;;;18.80;99.90;;;;;;5054407;28;20047;-84
2022/07/07 04:56:25;;;;;;;6.75;4.63;;;18.70;99.90;;;;;;5050832;28;20032;-83
2022/07/07 04:58:50;;;;;;;8.15;4.65;;;18.70;99.90;;;;;;5042074;28;20168;-82
2022/07/07 05:01:17;;;;;;;8.48;3.63;;;18.70;99.90;;;;;;5051455;28;20029;-83
2022/07/07 05:03:42;;;;;;;6.57;3.80;;;18.70;99.90;;;;;;5045725;28;20028;-83
2022/07/07 05:06:10;;;;;;;7.22;4.70;;;18.90;99.90;;;;;;5065814;28;20025;-84
2022/07/07 05:08:37;;;;;;;5.53;3.55;;;19.20;99.90;;;;;;5068691;28;20033;-84
2022/07/07 05:11:03;;;;;;;8.52;4.90;;;19.30;99.90;;;;;;5069870;28;20079;-83
2022/07/07 05:13:29;;;;;;;7.07;4.30;;;19.60;99.90;;;;;;5068324;28;20028;-83
2022/07/07 05:15:55;;;;;;;10.43;4.45;;;19.60;99.90;;;;;;5067540;28;20040;-82
2022/07/07 05:18:21;;;;;;;5.93;3.47;;;19.70;99.90;;;;;;5050493;28;20037;-83
2022/07/07 05:20:47;;;;;;;6.03;4.82;;;19.90;99.90;;;;;;5065922;28;20021;-84
2022/07/07 05:23:13;;;;;;;9.60;4.97;;;19.90;99.90;;;;;;5066270;28;20117;-83
2022/07/07 05:25:39;;;;;;;7.13;4.35;;;19.90;99.90;;;;;;5047146;28;20056;-84
2022/07/07 05:28:05;;;;;;;6.05;3.78;;;19.80;99.90;;;;;;5050367;28;20121;-81
2022/07/07 05:30:31;;;;;;;10.80;4.25;;;19.80;99.90;;;;;;5055660;28;20420;-84
2022/07/07 05:33:03;;;;;;;5.65;4.35;;;19.90;99.90;;;;;;5039675;28;20043;-83
2022/07/07 05:35:29;;;;;;;6.47;4.57;;;20.00;99.90;;;;;;5038802;28;20051;-85
2022/07/07 05:37:55;;;;;;;9.10;4.35;;;19.90;99.90;;;;;;5038781;28;20076;-83
2022/07/07 05:40:24;;;;;;;7.97;5.20;;;19.90;99.90;;;;;;5066003;28;20036;-82
2022/07/07 05:42:49;;;;;;;9.57;5.07;;;19.90;99.90;;;;;;5067420;28;20029;-83
2022/07/07 05:45:15;;;;;;;9.73;4.28;;;20.00;99.90;;;;;;5065855;28;20025;-83
2022/07/07 05:47:41;;;;;;;8.93;4.97;;;20.10;99.90;;;;;;5057996;28;20021;-83
2022/07/07 05:50:07;;;;;;;10.38;4.95;;;20.40;99.90;;;;;;5051352;28;20029;-83
2022/07/07 05:52:33;;;;;;;8.73;3.40;;;20.60;99.90;;;;;;5058556;28;20040;-84
2022/07/07 05:54:59;;;;;;;12.38;4.85;;;20.60;99.90;;;;;;5032720;28;20053;-83
2022/07/07 05:57:25;;;;;;;10.45;3.80;;;20.50;99.90;;;;;;5041195;28;20024;-83
2022/07/07 05:59:51;;;;;;;7.40;3.08;;;20.50;99.90;;;;;;5052242;28;20022;-82
2022/07/07 06:02:20;;;;;;;6.57;3.10;;;20.60;99.90;;;;;;5018251;28;20393;-81
2022/07/07 06:04:47;;;;;;;8.35;3.17;;;20.70;99.90;;;;;;5055197;28;20091;-82
2022/07/07 06:07:12;;;;;;;7.38;3.08;;;20.80;99.90;;;;;;5067930;28;20063;-81
2022/07/07 06:09:39;;;;;;;8.13;3.03;;;20.50;99.90;;;;;;5059246;28;20029;-83
2022/07/07 06:12:05;;;;;;;7.53;2.90;;;20.40;99.90;;;;;;5039756;28;20066;-81
2022/07/07 06:14:32;;;;;;;9.48;3.35;;;20.30;99.90;;;;;;5039449;28;20061;-80
2022/07/07 06:16:57;;;;;;;3.50;2.25;;;20.40;99.90;;;;;;5040083;28;20451;-84
2022/07/07 06:19:24;;;;;;;7.00;2.80;;;20.50;99.90;;;;;;5051957;28;20034;-82
2022/07/07 06:21:50;;;;;;;4.20;2.70;;;20.40;99.90;;;;;;5049434;28;20125;-83
2022/07/07 06:24:16;;;;;;;5.85;2.75;;;20.50;99.90;;;;;;5039567;28;20049;-81
2022/07/07 06:26:42;;;;;;;6.82;2.58;;;20.70;99.90;;;;;;5057340;28;20019;-82
2022/07/07 06:29:08;;;;;;;7.22;3.17;;;20.80;99.90;;;;;;5056625;28;20025;-82
2022/07/07 06:31:33;;;;;;;11.25;2.97;;;21.10;99.90;;;;;;5057520;28;20025;-82
2022/07/07 06:34:00;;;;;;;7.22;2.63;;;21.20;99.90;;;;;;5037615;28;20029;-82
2022/07/07 06:36:26;;;;;;;5.13;2.25;;;21.20;99.90;;;;;;5053299;28;20117;-84
2022/07/07 06:38:55;;;;;;;10.20;3.42;;;21.20;99.90;;;;;;5051348;28;20381;-84
2022/07/07 06:41:36;;;;;;;6.47;2.22;;;21.40;99.90;;;;;;5032503;28;20013;-83
2022/07/07 06:44:05;;;;;;;12.68;2.65;;;21.60;99.40;;;;;;5033560;28;20028;-83
2022/07/07 06:46:32;;;;;;;8.40;3.55;;;21.70;99.00;;;;;;5053292;28;20037;-83
2022/07/07 06:48:59;;;;;;;6.25;3.17;;;21.80;98.80;;;;;;5048723;28;20396;-83
2022/07/07 06:51:24;;;;;;;4.57;2.70;;;21.90;98.70;;;;;;5050706;28;20032;-84
2022/07/07 06:53:50;;;;;;;13.90;2.40;;;22.00;98.30;;;;;;5030477;28;20053;-84
2022/07/07 06:56:16;;;;;;;9.00;2.28;;;22.10;97.80;;;;;;5031576;28;20037;-84
2022/07/07 06:58:42;;;;;;;6.13;2.58;;;22.30;98.30;;;;;;5048106;28;20034;-86
2022/07/07 07:01:08;;;;;;;6.32;3.13;;;22.20;97.40;;;;;;5050451;28;20026;-82
2022/07/07 07:03:34;;;;;;;6.50;2.92;;;22.20;97.60;;;;;;5032667;28;20092;-84
2022/07/07 07:06:00;;;;;;;10.30;2.70;;;22.30;97.50;;;;;;5058408;28;20128;-83
2022/07/07 07:08:25;;;;;;;6.40;2.58;;;22.50;97.30;;;;;;5042108;28;20029;-83
2022/07/07 07:10:51;;;;;;;7.03;2.10;;;22.70;97.10;;;;;;5041814;28;20032;-82
2022/07/07 07:13:17;;;;;;;5.45;2.85;;;22.70;96.80;;;;;;5087371;22;20116;-81
2022/07/07 07:15:44;;;;;;;4.35;2.65;;;22.80;97.20;;;;;;5079450;28;20032;-79
2022/07/07 07:18:10;;;;;;;9.80;2.78;;;22.80;96.50;;;;;;5068839;28;20021;-79
2022/07/07 07:20:36;;;;;;;7.05;2.47;;;22.80;96.40;;;;;;5059187;28;20200;-80
2022/07/07 07:23:01;;;;;;;5.20;1.90;;;22.80;96.20;;;;;;5062950;28;20037;-78
2022/07/07 07:25:27;;;;;;;5.57;2.40;;;22.70;95.90;;;;;;5036659;28;20041;-81
2022/07/07 07:27:53;;;;;;;7.07;2.33;;;22.70;95.80;;;;;;5037472;28;20030;-80
2022/07/07 07:30:19;;;;;;;3.97;2.33;;;22.60;95.90;;;;;;5017761;28;20034;-80
2022/07/07 07:32:45;;;;;;;9.63;2.75;;;22.60;96.50;;;;;;5045129;28;20021;-81
2022/07/07 07:35:11;;;;;;;6.68;2.80;;;22.70;95.80;;;;;;5043485;28;20032;-78
2022/07/07 07:37:39;;;;;;;6.20;2.22;;;22.80;95.80;;;;;;5035042;28;20018;-82
2022/07/07 07:40:10;;;;;;;9.43;2.65;;;22.80;95.40;;;;;;5014783;28;20454;-82
2022/07/07 07:42:39;;;;;;;5.75;1.90;;;22.80;95.30;;;;;;5034956;28;20026;-81
2022/07/07 07:45:12;;;;;;;4.25;2.15;;;22.90;95.00;;;;;;5001189;28;20063;-80
2022/07/07 07:47:42;;;;;;;6.78;2.53;;;23.00;95.30;;;;;;5042220;28;20033;-81
2022/07/07 07:50:11;;;;;;;10.05;2.95;;;23.00;94.90;;;;;;5036718;28;20068;-81
2022/07/07 07:52:39;;;;;;;4.28;2.10;;;23.10;94.40;;;;;;5036705;28;20408;-80
2022/07/07 07:55:09;;;;;;;4.18;1.63;;;23.20;93.90;;;;;;5053492;28;20116;-82
2022/07/07 07:57:36;;;;;;;6.40;2.00;;;23.20;94.30;;;;;;5040017;28;20109;-79
2022/07/07 08:00:07;;;;;;;8.45;2.65;;;23.40;93.90;;;;;;5058428;28;20021;-79
2022/07/07 08:02:38;;;;;;;6.10;2.13;;;23.50;93.90;;;;;;5065873;28;20059;-80
2022/07/07 08:05:04;;;;;;;8.40;2.20;;;23.70;93.90;;;;;;5041199;28;20146;-78
2022/07/07 08:07:30;;;;;;;7.47;2.38;;;24.00;92.90;;;;;;5054926;28;20021;-81
2022/07/07 08:09:56;;;;;;;5.50;2.10;;;24.10;93.00;;;;;;5053687;28;20591;-80
2022/07/07 08:12:21;;;;;;;3.65;2.10;;;24.30;93.20;;;;;;5055268;28;20443;-79
2022/07/07 08:14:47;;;;;;;5.03;2.75;;;24.50;91.70;;;;;;5056052;28;20057;-80
2022/07/07 08:17:13;;;;;;;10.23;2.53;;;24.50;91.70;;;;;;5055376;28;20025;-82
2022/07/07 08:19:39;;;;;;;13.73;2.92;;;24.50;92.10;;;;;;5036775;28;20029;-80
2022/07/07 08:22:04;;;;;;;4.55;2.08;;;24.30;91.90;;;;;;5047561;28;20068;-79
2022/07/07 08:24:31;;;;;;;12.10;2.58;;;24.30;91.80;;;;;;5038482;28;20033;-81
2022/07/07 08:26:56;;;;;;;5.32;2.17;;;24.30;91.30;;;;;;5034825;28;20036;-80
2022/07/07 08:29:22;;;;;;;6.05;2.45;;;24.30;91.40;;;;;;5065133;28;20397;-79
2022/07/07 08:31:48;;;;;;;11.57;2.60;;;24.20;91.10;;;;;;5044234;28;20063;-80
2022/07/07 08:34:14;;;;;;;9.48;2.50;;;24.40;91.50;;;;;;5043630;28;20452;-82
2022/07/07 08:36:39;;;;;;;8.23;2.15;;;24.40;91.10;;;;;;5066622;28;20044;-79
2022/07/07 08:39:05;;;;;;;11.13;2.00;;;24.40;90.20;;;;;;5059158;28;20435;-80
2022/07/07 08:41:31;;;;;;;4.97;1.55;;;24.70;88.50;;;;;;5045715;28;20462;-77
2022/07/07 08:43:59;;;;;;;6.25;2.40;;;24.80;87.90;;;;;;5057874;28;20028;-81
2022/07/07 08:46:24;;;;;;;6.10;2.50;;;25.00;87.50;;;;;;5056857;28;20045;-80
2022/07/07 08:48:51;;;;;;;6.47;2.00;;;25.00;86.70;;;;;;5054157;28;20029;-79
2022/07/07 08:51:16;;;;;;;6.82;1.83;;;25.10;85.80;;;;;;5053542;28;20084;-79
2022/07/07 08:53:46;;;;;;;7.10;2.05;;;25.10;85.70;;;;;;5053253;28;20061;-80
2022/07/07 08:56:12;;;;;;;4.55;1.80;;;25.10;85.40;;;;;;5051962;28;20033;-79
2022/07/07 08:58:39;;;;;;;3.95;1.83;;;25.20;85.60;;;;;;5032967;28;20026;-78
2022/07/07 09:01:06;;;;;;;2.80;2.00;;;25.40;86.20;;;;;;5053680;28;20018;-79
2022/07/07 09:03:32;;;;;;;5.22;2.03;;;25.70;83.40;;;;;;5060332;28;20025;-80
2022/07/07 09:05:59;;;;;;;6.43;2.38;;;25.90;82.90;;;;;;5063358;28;20013;-80
2022/07/07 09:08:26;;;;;;;4.05;2.00;;;25.80;81.40;;;;;;5055699;28;20443;-81
2022/07/07 09:10:53;;;;;;;5.35;2.15;;;25.70;82.40;;;;;;5049897;28;20031;-81
2022/07/07 09:13:32;;;;;;;8.57;2.13;;;25.80;81.20;;;;;;5051550;28;20035;-79
2022/07/07 09:16:01;;;;;;;8.10;2.13;;;26.00;81.20;;;;;;5047636;28;20089;-79
2022/07/07 09:18:29;;;;;;;7.80;2.03;;;26.20;81.40;;;;;;5025280;28;20040;-78
2022/07/07 09:20:56;;;;;;;8.75;2.63;;;26.10;81.90;;;;;;5049793;28;20025;-80
2022/07/07 09:23:22;;;;;;;4.05;1.90;;;26.20;82.00;;;;;;5048140;28;20025;-80
2022/07/07 09:25:47;;;;;;;7.53;2.20;;;26.20;82.40;;;;;;5056112;28;20036;-82
2022/07/07 09:28:13;;;;;;;6.95;2.15;;;26.10;83.10;;;;;;5058397;28;20085;-80
2022/07/07 09:30:40;;;;;;;11.32;2.75;;;25.90;82.60;;;;;;5057925;28;20021;-80
2022/07/07 09:33:12;;;;;;;4.07;2.20;;;25.70;83.20;;;;;;5057190;28;20465;-80
2022/07/07 09:38:25;;;;;;;5.20;2.10;;;25.10;84.30;;;;;;5056204;28;20025;-79
2022/07/07 09:40:59;;;;;;;10.05;2.38;;;24.90;83.70;;;;;;5039623;28;20024;-81
2022/07/07 09:43:30;;;;;;;;;;;24.60;85.50;;;;;;5040276;28;20434;-81
2022/07/07 09:46:15;;;;;;;5.93;2.67;;;24.50;85.20;;;;;;5058337;28;19919;-80
2022/07/07 09:48:46;;;;;;;7.13;2.58;;;24.00;85.20;;;;;;5020561;28;20044;-79
2022/07/07 09:51:20;;;;;;;9.25;2.17;;;24.00;86.10;;;;;;5047953;28;20041;-79
2022/07/07 09:54:03;;;;;;;6.38;2.47;;;24.10;85.20;;;;;;5038030;28;20026;-79
2022/07/07 09:56:40;;;;;;;10.52;2.47;;;24.30;84.60;;;;;;5036925;28;20087;-81
2022/07/07 09:59:09;;;;;;;5.50;2.35;;;24.30;84.90;;;;;;5037246;28;20060;-81
2022/07/07 10:01:40;;;;;;;8.50;2.03;;;24.40;83.50;;;;;;5047865;28;20099;-78
2022/07/07 10:04:11;;;;;;;6.60;2.78;;;24.30;83.50;;;;;;5019191;28;20025;-81
2022/07/07 10:06:41;;;;;;;12.07;2.50;;;24.50;84.10;;;;;;5018757;28;20037;-81
2022/07/07 10:09:08;;;;;;;4.47;2.03;;;24.60;82.90;;;;;;5037106;28;20033;-78
2022/07/07 10:11:38;;;;;;;5.65;2.08;;;24.60;82.70;;;;;;5037582;28;20026;-78
2022/07/07 10:14:34;;;;;;;6.18;2.00;;;24.60;84.00;;;;;;5037502;28;20029;-79
2022/07/07 10:17:02;;;;;;;7.57;2.45;;;24.60;82.60;;;;;;5035669;28;20037;-80
2022/07/07 10:19:28;;;;;;;7.47;2.80;;;24.50;83.50;;;;;;5035725;28;20055;-80
2022/07/07 10:21:56;;;;;;;4.95;2.53;;;24.20;83.60;;;;;;5035978;28;20056;-80
2022/07/07 10:24:25;;;;;;;8.35;2.20;;;24.20;83.70;;;;;;5035417;28;20029;-80
2022/07/07 10:26:59;;;;;;;7.28;2.53;;;24.40;83.30;;;;;;5035771;28;20370;-79
2022/07/07 10:29:41;;;;;;;8.87;2.17;;;24.40;83.40;;;;;;5035732;28;20180;-79
2022/07/07 10:32:16;;;;;;;2.67;2.08;;;24.60;83.30;;;;;;5040973;28;20127;-80
2022/07/07 10:34:50;;;;;;;7.60;2.17;;;24.70;83.20;;;;;;5041195;28;20041;-80
2022/07/07 10:37:16;;;;;;;7.82;2.03;;;24.80;82.70;;;;;;5037089;28;20034;-80
2022/07/07 10:39:47;;;;;;;9.15;2.80;;;25.00;82.50;;;;;;5035966;28;20040;-80
2022/07/07 10:42:21;;;;;;;5.60;2.50;;;24.90;82.80;;;;;;5036866;28;20396;-79
2022/07/07 10:44:49;;;;;;;;;;;24.80;82.70;;;;;;5042046;28;20027;-79
2022/07/07 10:47:17;;;;;;;15.57;3.95;;;24.60;83.30;;;;;;5046317;28;19904;-81
2022/07/07 10:49:57;;;;;;;43.50;7.00;;;24.50;83.40;;;;;;5055847;28;20587;-79
2022/07/07 10:52:24;;;;;;;47.80;5.63;;;23.90;84.50;;;;;;5057645;28;20473;-81
2022/07/07 10:54:53;;;;;;;9.85;3.25;;;23.70;85.40;;;;;;5058551;28;20400;-77
2022/07/07 10:57:21;;;;;;;6.93;2.58;;;23.90;84.70;;;;;;5038911;28;20037;-79
2022/07/07 11:00:00;;;;;;;10.25;3.03;;;24.20;84.30;;;;;;5057693;28;20029;-80
2022/07/07 11:02:41;;;;;;;8.73;2.83;;;24.20;84.10;;;;;;5039787;28;20451;-82
2022/07/07 11:05:10;;;;;;;6.30;2.50;;;24.20;84.50;;;;;;5068331;28;20090;-80
2022/07/07 11:07:36;;;;;;;5.10;2.35;;;24.40;83.70;;;;;;5055207;28;20124;-80
2022/07/07 11:10:06;;;;;;;4.53;2.88;;;24.40;83.70;;;;;;5037402;28;20035;-80
2022/07/07 11:12:44;;;;;;;5.95;2.67;;;24.20;84.40;;;;;;5055551;28;20029;-82
2022/07/07 11:15:19;;;;;;;12.15;2.90;;;24.40;84.20;;;;;;5056934;28;20105;-79
2022/07/07 11:17:46;;;;;;;6.55;2.92;;;24.60;83.70;;;;;;5058497;28;20034;-79
2022/07/07 11:20:16;;;;;;;18.73;3.40;;;24.40;84.00;;;;;;5068834;28;20050;-79
2022/07/07 11:22:47;;;;;;;12.43;2.80;;;23.80;84.40;;;;;;5070509;28;20021;-79
2022/07/07 11:25:17;;;;;;;12.65;3.05;;;23.90;84.80;;;;;;5063788;28;20089;-78
2022/07/07 11:27:43;;;;;;;11.30;2.70;;;24.10;84.70;;;;;;5051889;28;20021;-79
2022/07/07 11:30:09;;;;;;;4.50;2.42;;;24.20;85.00;;;;;;5046150;28;20468;-81
2022/07/07 11:32:39;;;;;;;12.90;3.00;;;24.50;84.00;;;;;;5030503;28;20033;-83
2022/07/07 11:35:10;;;;;;;5.50;2.17;;;24.60;83.80;;;;;;5031598;28;20561;-82
2022/07/07 11:37:41;;;;;;;9.20;2.28;;;24.60;82.60;;;;;;5048596;28;20040;-81
2022/07/07 11:40:13;;;;;;;13.48;2.13;;;24.60;81.70;;;;;;5056644;28;20037;-80
2022/07/07 11:42:43;;;;;;;15.75;2.63;;;24.60;79.40;;;;;;5057670;28;20025;-82
2022/07/07 11:45:35;;;;;;;7.18;1.50;;;24.50;78.90;;;;;;5043238;28;20029;-82
2022/07/07 11:48:06;;;;;;;18.65;1.92;;;24.20;76.80;;;;;;5047249;28;20037;-80
2022/07/07 11:50:35;;;;;;;16.05;1.85;;;23.90;77.40;;;;;;5040407;28;20350;-79
2022/07/07 11:53:02;;;;;;;9.23;1.35;;;23.20;80.30;;;;;;5023195;28;20068;-82
2022/07/07 11:55:29;;;;;;;5.35;1.77;;;23.20;78.60;;;;;;5040699;28;20037;-79
2022/07/07 11:58:03;;;;;;;12.02;1.88;;;23.10;79.00;;;;;;5021421;28;20088;-82
2022/07/07 12:00:33;;;;;;;9.07;1.50;;;22.90;78.80;;;;;;5041948;28;20143;-81
2022/07/07 12:03:04;;;;;;;4.75;1.40;;;22.80;77.90;;;;;;5027839;28;20037;-80
2022/07/07 12:05:44;;;;;;;5.50;1.33;;;22.80;78.30;;;;;;5046116;28;20125;-81
2022/07/07 12:08:12;;;;;;;7.68;1.63;;;23.00;78.60;;;;;;5040671;28;20025;-80
2022/07/07 12:10:48;;;;;;;4.28;1.20;;;22.90;78.70;;;;;;5023537;28;20164;-79
2022/07/07 12:13:14;;;;;;;6.30;1.17;;;22.70;79.00;;;;;;5042803;28;20163;-80
2022/07/07 12:15:42;;;;;;;6.45;1.83;;;22.60;80.00;;;;;;5053557;28;20030;-81
2022/07/07 12:18:09;;;;;;;8.65;1.45;;;22.50;80.00;;;;;;5042829;28;20538;-81
2022/07/07 12:20:36;;;;;;;5.47;1.35;;;22.40;80.50;;;;;;5042881;28;20077;-80
2022/07/07 12:23:07;;;;;;;2.72;1.58;;;22.10;81.50;;;;;;5043763;28;20040;-80
2022/07/07 12:25:35;;;;;;;19.40;2.17;;;22.00;82.80;;;;;;5046525;28;20036;-79
2022/07/07 12:28:07;;;;;;;3.42;1.92;;;21.90;84.00;;;;;;5052034;28;20017;-85
2022/07/07 12:30:49;;;;;;;6.32;1.67;;;21.50;85.60;;;;;;5050959;28;20400;-81
2022/07/07 12:33:43;;;;;;;5.95;2.03;;;21.50;86.70;;;;;;5055491;28;20089;-81
2022/07/07 12:36:09;;;;;;;3.33;1.88;;;21.50;87.00;;;;;;5059791;28;20033;-82
2022/07/07 12:38:42;;;;;;;4.13;1.70;;;21.50;86.40;;;;;;5059288;28;20033;-83
2022/07/07 12:41:08;;;;;;;16.23;1.92;;;21.60;87.60;;;;;;5068705;28;20028;-80
2022/07/07 12:43:36;;;;;;;5.88;1.88;;;21.70;88.20;;;;;;5042908;28;20021;-80
2022/07/07 12:46:10;;;;;;;9.05;2.10;;;21.80;88.70;;;;;;5059871;28;20025;-82
2022/07/07 12:48:51;;;;;;;9.13;1.50;;;21.60;89.70;;;;;;5062122;28;20029;-80
2022/07/07 12:51:25;;;;;;;3.03;1.80;;;21.20;90.40;;;;;;5047185;28;20029;-78
2022/07/07 12:53:51;;;;;;;6.68;2.50;;;21.20;90.80;;;;;;5064004;28;20025;-79